sensor_id;sensor_type;location;lat;lon;timestamp;P1;durP1;ratioP1;P2;durP2;ratioP2
77524;SDS011;66638;50.050;21.124;2023-11-21T00:00:00;13.80;;;9.00;;
77524;SDS011;66638;50.050;21.124;2023-11-21T00:03:27;15.60;;;10.50;;
77524;SDS011;66638;50.050;21.124;2023-11-21T00:06:15;13.80;;;10.50;;
77524;SDS011;66638;50.050;21.124;2023-11-21T00:09:03;14.40;;;9.70;;
77524;SDS011;66638;50.050;21.124;2023-11-21T00:11:51;15.00;;;11.00;;
77524;SDS011;66638;50.050;21.124;2023-11-21T00:17:25;11.40;;;8.50;;
77524;SDS011;66638;50.050;21.124;2023-11-21T00:20:12;13.50;;;10.00;;
77524;SDS011;66638;50.050;21.124;2023-11-21T00:23:00;12.10;;;10.00;;
77524;SDS011;66638;50.050;21.124;2023-11-21T00:25:49;13.90;;;10.70;;
77524;SDS011;66638;50.050;21.124;2023-11-21T00:28:36;10.70;;;8.00;;
77524;SDS011;66638;50.050;21.124;2023-11-21T00:31:23;14.10;;;11.80;;
77524;SDS011;66638;50.050;21.124;2023-11-21T00:34:13;13.70;;;11.20;;
77524;SDS011;66638;50.050;21.124;2023-11-21T00:37:01;13.60;;;10.20;;
77524;SDS011;66638;50.050;21.124;2023-11-21T00:39:50;14.60;;;10.60;;
77524;SDS011;66638;50.050;21.124;2023-11-21T00:45:24;17.80;;;11.50;;
77524;SDS011;66638;50.050;21.124;2023-11-21T00:48:11;18.50;;;12.10;;
77524;SDS011;66638;50.050;21.124;2023-11-21T00:51:00;18.90;;;13.10;;
77524;SDS011;66638;50.050;21.124;2023-11-21T00:53:47;14.20;;;10.30;;
77524;SDS011;66638;50.050;21.124;2023-11-21T00:56:35;17.40;;;11.50;;
77524;SDS011;66638;50.050;21.124;2023-11-21T00:59:22;17.40;;;11.50;;
77524;SDS011;66638;50.050;21.124;2023-11-21T01:02:10;15.20;;;11.20;;
77524;SDS011;66638;50.050;21.124;2023-11-21T01:07:44;14.90;;;10.40;;
77524;SDS011;66638;50.050;21.124;2023-11-21T01:10:31;17.30;;;11.10;;
77524;SDS011;66638;50.050;21.124;2023-11-21T01:13:18;16.70;;;10.60;;
77524;SDS011;66638;50.050;21.124;2023-11-21T01:16:06;20.60;;;12.40;;
77524;SDS011;66638;50.050;21.124;2023-11-21T01:18:55;19.60;;;11.50;;
77524;SDS011;66638;50.050;21.124;2023-11-21T01:21:42;21.90;;;13.70;;
77524;SDS011;66638;50.050;21.124;2023-11-21T01:27:16;17.00;;;10.30;;
77524;SDS011;66638;50.050;21.124;2023-11-21T01:30:05;16.40;;;9.50;;
77524;SDS011;66638;50.050;21.124;2023-11-21T01:32:55;15.30;;;9.80;;
77524;SDS011;66638;50.050;21.124;2023-11-21T01:35:43;12.90;;;9.20;;
77524;SDS011;66638;50.050;21.124;2023-11-21T01:38:30;15.80;;;10.00;;
77524;SDS011;66638;50.050;21.124;2023-11-21T01:41:20;14.20;;;8.20;;
77524;SDS011;66638;50.050;21.124;2023-11-21T01:46:56;13.30;;;8.00;;
77524;SDS011;66638;50.050;21.124;2023-11-21T01:49:44;14.50;;;9.40;;
77524;SDS011;66638;50.050;21.124;2023-11-21T01:52:32;14.40;;;8.90;;
77524;SDS011;66638;50.050;21.124;2023-11-21T01:55:21;13.30;;;8.50;;
77524;SDS011;66638;50.050;21.124;2023-11-21T01:58:09;13.70;;;8.50;;
77524;SDS011;66638;50.050;21.124;2023-11-21T02:00:59;12.20;;;7.80;;
77524;SDS011;66638;50.050;21.124;2023-11-21T02:03:48;11.00;;;7.80;;
77524;SDS011;66638;50.050;21.124;2023-11-21T02:06:36;14.90;;;8.30;;
77524;SDS011;66638;50.050;21.124;2023-11-21T02:09:27;12.70;;;7.60;;
77524;SDS011;66638;50.050;21.124;2023-11-21T02:12:15;12.90;;;7.50;;
77524;SDS011;66638;50.050;21.124;2023-11-21T02:15:03;11.40;;;7.70;;
77524;SDS011;66638;50.050;21.124;2023-11-21T02:17:56;7.00;;;5.00;;
77524;SDS011;66638;50.050;21.124;2023-11-21T02:20:45;10.20;;;7.40;;
77524;SDS011;66638;50.050;21.124;2023-11-21T02:23:34;11.30;;;7.60;;
77524;SDS011;66638;50.050;21.124;2023-11-21T02:26:21;8.80;;;6.10;;
77524;SDS011;66638;50.050;21.124;2023-11-21T02:29:08;12.10;;;8.30;;
77524;SDS011;66638;50.050;21.124;2023-11-21T02:31:58;12.20;;;7.40;;
77524;SDS011;66638;50.050;21.124;2023-11-21T02:34:46;13.50;;;8.20;;
77524;SDS011;66638;50.050;21.124;2023-11-21T02:37:33;13.30;;;8.30;;
77524;SDS011;66638;50.050;21.124;2023-11-21T02:40:21;11.60;;;8.10;;
77524;SDS011;66638;50.050;21.124;2023-11-21T02:43:11;12.60;;;8.10;;
77524;SDS011;66638;50.050;21.124;2023-11-21T02:45:58;9.40;;;6.80;;
77524;SDS011;66638;50.050;21.124;2023-11-21T02:48:45;9.90;;;7.60;;
77524;SDS011;66638;50.050;21.124;2023-11-21T02:51:33;10.80;;;6.20;;
77524;SDS011;66638;50.050;21.124;2023-11-21T02:54:20;12.20;;;7.40;;
77524;SDS011;66638;50.050;21.124;2023-11-21T02:57:09;13.80;;;8.40;;
77524;SDS011;66638;50.050;21.124;2023-11-21T02:59:56;16.00;;;9.20;;
77524;SDS011;66638;50.050;21.124;2023-11-21T03:02:43;13.50;;;8.60;;
77524;SDS011;66638;50.050;21.124;2023-11-21T03:05:30;14.70;;;9.30;;
77524;SDS011;66638;50.050;21.124;2023-11-21T03:08:18;7.90;;;5.30;;
77524;SDS011;66638;50.050;21.124;2023-11-21T03:11:05;14.70;;;8.10;;
77524;SDS011;66638;50.050;21.124;2023-11-21T03:13:52;11.40;;;7.00;;
77524;SDS011;66638;50.050;21.124;2023-11-21T03:16:40;9.70;;;5.70;;
77524;SDS011;66638;50.050;21.124;2023-11-21T03:19:28;8.50;;;5.80;;
77524;SDS011;66638;50.050;21.124;2023-11-21T03:22:15;7.00;;;4.60;;
77524;SDS011;66638;50.050;21.124;2023-11-21T03:25:02;5.90;;;4.10;;
77524;SDS011;66638;50.050;21.124;2023-11-21T03:27:50;8.30;;;4.60;;
77524;SDS011;66638;50.050;21.124;2023-11-21T03:30:37;6.90;;;4.70;;
77524;SDS011;66638;50.050;21.124;2023-11-21T03:36:11;7.00;;;4.50;;
77524;SDS011;66638;50.050;21.124;2023-11-21T03:38:58;6.80;;;4.90;;
77524;SDS011;66638;50.050;21.124;2023-11-21T03:41:46;7.20;;;4.70;;
77524;SDS011;66638;50.050;21.124;2023-11-21T03:44:33;10.80;;;6.40;;
77524;SDS011;66638;50.050;21.124;2023-11-21T03:47:21;6.50;;;4.30;;
77524;SDS011;66638;50.050;21.124;2023-11-21T03:52:56;8.90;;;5.80;;
77524;SDS011;66638;50.050;21.124;2023-11-21T03:55:43;7.10;;;5.00;;
77524;SDS011;66638;50.050;21.124;2023-11-21T03:58:31;8.00;;;5.10;;
77524;SDS011;66638;50.050;21.124;2023-11-21T04:01:19;10.70;;;5.70;;
77524;SDS011;66638;50.050;21.124;2023-11-21T04:04:08;12.40;;;7.50;;
77524;SDS011;66638;50.050;21.124;2023-11-21T04:06:55;15.80;;;7.60;;
77524;SDS011;66638;50.050;21.124;2023-11-21T04:09:43;10.00;;;6.30;;
77524;SDS011;66638;50.050;21.124;2023-11-21T04:15:17;8.30;;;5.40;;
77524;SDS011;66638;50.050;21.124;2023-11-21T04:18:04;6.90;;;5.30;;
77524;SDS011;66638;50.050;21.124;2023-11-21T04:20:51;8.00;;;5.10;;
77524;SDS011;66638;50.050;21.124;2023-11-21T04:23:39;7.00;;;5.10;;
77524;SDS011;66638;50.050;21.124;2023-11-21T04:26:27;5.20;;;3.50;;
77524;SDS011;66638;50.050;21.124;2023-11-21T04:29:14;5.80;;;4.80;;
77524;SDS011;66638;50.050;21.124;2023-11-21T04:32:01;7.30;;;5.10;;
77524;SDS011;66638;50.050;21.124;2023-11-21T04:34:49;9.10;;;5.20;;
77524;SDS011;66638;50.050;21.124;2023-11-21T04:37:36;6.30;;;4.90;;
77524;SDS011;66638;50.050;21.124;2023-11-21T04:40:24;8.20;;;5.90;;
77524;SDS011;66638;50.050;21.124;2023-11-21T04:43:11;9.20;;;6.10;;
77524;SDS011;66638;50.050;21.124;2023-11-21T04:45:58;10.10;;;6.90;;
77524;SDS011;66638;50.050;21.124;2023-11-21T04:48:46;9.20;;;7.80;;
77524;SDS011;66638;50.050;21.124;2023-11-21T04:51:33;11.30;;;8.50;;
77524;SDS011;66638;50.050;21.124;2023-11-21T04:54:20;13.00;;;10.00;;
77524;SDS011;66638;50.050;21.124;2023-11-21T04:57:08;12.50;;;9.10;;
77524;SDS011;66638;50.050;21.124;2023-11-21T04:59:55;11.10;;;8.80;;
77524;SDS011;66638;50.050;21.124;2023-11-21T05:02:42;11.80;;;6.80;;
77524;SDS011;66638;50.050;21.124;2023-11-21T05:05:31;16.70;;;11.60;;
77524;SDS011;66638;50.050;21.124;2023-11-21T05:08:18;13.90;;;9.60;;
77524;SDS011;66638;50.050;21.124;2023-11-21T05:11:07;13.40;;;9.00;;
77524;SDS011;66638;50.050;21.124;2023-11-21T05:13:54;10.60;;;8.60;;
77524;SDS011;66638;50.050;21.124;2023-11-21T05:16:43;12.20;;;8.10;;
77524;SDS011;66638;50.050;21.124;2023-11-21T05:19:31;8.50;;;7.00;;
77524;SDS011;66638;50.050;21.124;2023-11-21T05:22:19;11.00;;;8.10;;
77524;SDS011;66638;50.050;21.124;2023-11-21T05:25:07;16.10;;;8.80;;
77524;SDS011;66638;50.050;21.124;2023-11-21T05:27:55;10.90;;;8.10;;
77524;SDS011;66638;50.050;21.124;2023-11-21T05:30:42;12.80;;;8.50;;
77524;SDS011;66638;50.050;21.124;2023-11-21T05:33:29;10.50;;;7.50;;
77524;SDS011;66638;50.050;21.124;2023-11-21T05:36:16;9.80;;;7.40;;
77524;SDS011;66638;50.050;21.124;2023-11-21T05:39:04;12.50;;;8.80;;
77524;SDS011;66638;50.050;21.124;2023-11-21T05:41:51;10.70;;;9.00;;
77524;SDS011;66638;50.050;21.124;2023-11-21T05:47:27;13.80;;;9.40;;
77524;SDS011;66638;50.050;21.124;2023-11-21T05:50:15;12.30;;;9.10;;
77524;SDS011;66638;50.050;21.124;2023-11-21T05:53:04;14.10;;;10.90;;
77524;SDS011;66638;50.050;21.124;2023-11-21T05:55:51;13.90;;;10.50;;
77524;SDS011;66638;50.050;21.124;2023-11-21T05:58:39;15.00;;;10.30;;
77524;SDS011;66638;50.050;21.124;2023-11-21T06:01:26;16.50;;;11.40;;
77524;SDS011;66638;50.050;21.124;2023-11-21T06:04:14;11.90;;;8.60;;
77524;SDS011;66638;50.050;21.124;2023-11-21T06:07:02;11.20;;;9.10;;
77524;SDS011;66638;50.050;21.124;2023-11-21T06:09:49;10.50;;;9.20;;
77524;SDS011;66638;50.050;21.124;2023-11-21T06:15:24;9.60;;;7.60;;
77524;SDS011;66638;50.050;21.124;2023-11-21T06:18:11;9.30;;;7.80;;
77524;SDS011;66638;50.050;21.124;2023-11-21T06:20:59;12.50;;;8.20;;
77524;SDS011;66638;50.050;21.124;2023-11-21T06:23:47;14.90;;;9.80;;
77524;SDS011;66638;50.050;21.124;2023-11-21T06:26:35;10.60;;;8.30;;
77524;SDS011;66638;50.050;21.124;2023-11-21T06:29:22;12.00;;;9.60;;
77524;SDS011;66638;50.050;21.124;2023-11-21T06:32:10;9.20;;;7.30;;
77524;SDS011;66638;50.050;21.124;2023-11-21T06:37:46;11.80;;;7.70;;
77524;SDS011;66638;50.050;21.124;2023-11-21T06:40:36;11.90;;;8.20;;
77524;SDS011;66638;50.050;21.124;2023-11-21T06:46:10;12.20;;;8.80;;
77524;SDS011;66638;50.050;21.124;2023-11-21T06:48:58;11.70;;;8.80;;
77524;SDS011;66638;50.050;21.124;2023-11-21T06:51:45;13.60;;;10.30;;
77524;SDS011;66638;50.050;21.124;2023-11-21T06:54:32;12.80;;;9.60;;
77524;SDS011;66638;50.050;21.124;2023-11-21T06:57:19;13.20;;;10.80;;
77524;SDS011;66638;50.050;21.124;2023-11-21T07:00:07;9.00;;;6.10;;
77524;SDS011;66638;50.050;21.124;2023-11-21T07:02:56;13.20;;;9.80;;
77524;SDS011;66638;50.050;21.124;2023-11-21T07:05:44;14.30;;;11.50;;
77524;SDS011;66638;50.050;21.124;2023-11-21T07:08:32;14.10;;;10.80;;
77524;SDS011;66638;50.050;21.124;2023-11-21T07:11:19;10.70;;;8.50;;
77524;SDS011;66638;50.050;21.124;2023-11-21T07:14:08;13.30;;;8.70;;
77524;SDS011;66638;50.050;21.124;2023-11-21T07:16:56;11.10;;;8.10;;
77524;SDS011;66638;50.050;21.124;2023-11-21T07:19:43;12.40;;;8.60;;
77524;SDS011;66638;50.050;21.124;2023-11-21T07:22:30;13.00;;;9.90;;
77524;SDS011;66638;50.050;21.124;2023-11-21T07:28:05;11.90;;;7.70;;
77524;SDS011;66638;50.050;21.124;2023-11-21T07:30:52;13.60;;;10.00;;
77524;SDS011;66638;50.050;21.124;2023-11-21T07:33:39;12.00;;;8.10;;
77524;SDS011;66638;50.050;21.124;2023-11-21T07:36:27;8.90;;;6.40;;
77524;SDS011;66638;50.050;21.124;2023-11-21T07:39:14;11.90;;;9.20;;
77524;SDS011;66638;50.050;21.124;2023-11-21T07:42:03;10.10;;;7.90;;
77524;SDS011;66638;50.050;21.124;2023-11-21T07:44:51;9.60;;;7.20;;
77524;SDS011;66638;50.050;21.124;2023-11-21T07:47:38;12.00;;;8.40;;
77524;SDS011;66638;50.050;21.124;2023-11-21T07:50:26;11.00;;;8.00;;
77524;SDS011;66638;50.050;21.124;2023-11-21T07:53:14;10.40;;;7.30;;
77524;SDS011;66638;50.050;21.124;2023-11-21T07:56:05;8.90;;;6.90;;
77524;SDS011;66638;50.050;21.124;2023-11-21T07:58:57;7.00;;;5.50;;
77524;SDS011;66638;50.050;21.124;2023-11-21T08:04:32;8.00;;;5.40;;
77524;SDS011;66638;50.050;21.124;2023-11-21T08:07:21;9.70;;;6.40;;
77524;SDS011;66638;50.050;21.124;2023-11-21T08:10:08;7.60;;;5.80;;
77524;SDS011;66638;50.050;21.124;2023-11-21T08:12:57;5.90;;;4.80;;
77524;SDS011;66638;50.050;21.124;2023-11-21T08:15:45;6.90;;;4.20;;
77524;SDS011;66638;50.050;21.124;2023-11-21T08:18:32;7.10;;;4.20;;
77524;SDS011;66638;50.050;21.124;2023-11-21T08:21:21;8.70;;;5.30;;
77524;SDS011;66638;50.050;21.124;2023-11-21T08:24:10;5.30;;;3.70;;
77524;SDS011;66638;50.050;21.124;2023-11-21T08:26:58;6.30;;;4.90;;
77524;SDS011;66638;50.050;21.124;2023-11-21T08:29:45;8.80;;;4.70;;
77524;SDS011;66638;50.050;21.124;2023-11-21T08:32:32;6.90;;;4.90;;
77524;SDS011;66638;50.050;21.124;2023-11-21T08:35:20;10.20;;;5.80;;
77524;SDS011;66638;50.050;21.124;2023-11-21T08:40:56;5.20;;;3.50;;
77524;SDS011;66638;50.050;21.124;2023-11-21T08:43:43;5.30;;;4.10;;
77524;SDS011;66638;50.050;21.124;2023-11-21T08:46:31;7.80;;;5.20;;
77524;SDS011;66638;50.050;21.124;2023-11-21T08:49:18;4.80;;;3.50;;
77524;SDS011;66638;50.050;21.124;2023-11-21T08:54:53;5.20;;;3.90;;
77524;SDS011;66638;50.050;21.124;2023-11-21T08:57:43;8.70;;;4.50;;
77524;SDS011;66638;50.050;21.124;2023-11-21T09:00:32;6.80;;;4.50;;
77524;SDS011;66638;50.050;21.124;2023-11-21T09:03:20;5.70;;;4.60;;
77524;SDS011;66638;50.050;21.124;2023-11-21T09:06:08;4.90;;;3.40;;
77524;SDS011;66638;50.050;21.124;2023-11-21T09:08:56;6.30;;;4.30;;
77524;SDS011;66638;50.050;21.124;2023-11-21T09:11:43;3.80;;;3.70;;
77524;SDS011;66638;50.050;21.124;2023-11-21T09:14:32;6.80;;;3.70;;
77524;SDS011;66638;50.050;21.124;2023-11-21T09:20:06;5.70;;;4.00;;
77524;SDS011;66638;50.050;21.124;2023-11-21T09:22:56;7.50;;;4.70;;
77524;SDS011;66638;50.050;21.124;2023-11-21T09:25:43;6.30;;;4.20;;
77524;SDS011;66638;50.050;21.124;2023-11-21T09:28:33;6.20;;;4.20;;
77524;SDS011;66638;50.050;21.124;2023-11-21T09:31:20;6.00;;;4.20;;
77524;SDS011;66638;50.050;21.124;2023-11-21T09:34:09;5.70;;;4.40;;
77524;SDS011;66638;50.050;21.124;2023-11-21T09:36:58;6.80;;;5.40;;
77524;SDS011;66638;50.050;21.124;2023-11-21T09:39:46;8.20;;;6.60;;
77524;SDS011;66638;50.050;21.124;2023-11-21T09:42:38;8.00;;;6.10;;
77524;SDS011;66638;50.050;21.124;2023-11-21T09:45:32;7.60;;;6.20;;
77524;SDS011;66638;50.050;21.124;2023-11-21T09:48:22;7.70;;;6.00;;
77524;SDS011;66638;50.050;21.124;2023-11-21T09:51:12;8.40;;;5.70;;
77524;SDS011;66638;50.050;21.124;2023-11-21T09:53:59;7.80;;;6.20;;
77524;SDS011;66638;50.050;21.124;2023-11-21T09:56:46;7.20;;;5.80;;
77524;SDS011;66638;50.050;21.124;2023-11-21T09:59:33;9.50;;;6.60;;
77524;SDS011;66638;50.050;21.124;2023-11-21T10:02:24;8.90;;;6.70;;
77524;SDS011;66638;50.050;21.124;2023-11-21T10:05:13;10.10;;;6.20;;
77524;SDS011;66638;50.050;21.124;2023-11-21T10:08:01;7.80;;;5.40;;
77524;SDS011;66638;50.050;21.124;2023-11-21T10:10:49;8.80;;;5.90;;
77524;SDS011;66638;50.050;21.124;2023-11-21T10:13:38;7.70;;;4.90;;
77524;SDS011;66638;50.050;21.124;2023-11-21T10:16:27;7.10;;;5.60;;
77524;SDS011;66638;50.050;21.124;2023-11-21T10:19:14;6.70;;;4.90;;
77524;SDS011;66638;50.050;21.124;2023-11-21T10:22:03;11.30;;;6.10;;
77524;SDS011;66638;50.050;21.124;2023-11-21T10:24:51;7.50;;;5.60;;
77524;SDS011;66638;50.050;21.124;2023-11-21T10:27:38;7.90;;;6.10;;
77524;SDS011;66638;50.050;21.124;2023-11-21T10:30:32;7.20;;;5.50;;
77524;SDS011;66638;50.050;21.124;2023-11-21T10:33:27;8.00;;;5.60;;
77524;SDS011;66638;50.050;21.124;2023-11-21T10:36:24;7.50;;;5.80;;
77524;SDS011;66638;50.050;21.124;2023-11-21T10:39:18;8.30;;;6.10;;
77524;SDS011;66638;50.050;21.124;2023-11-21T10:42:08;8.90;;;7.00;;
77524;SDS011;66638;50.050;21.124;2023-11-21T10:44:56;8.40;;;6.20;;
77524;SDS011;66638;50.050;21.124;2023-11-21T10:47:44;10.00;;;8.00;;
77524;SDS011;66638;50.050;21.124;2023-11-21T10:50:32;13.50;;;6.60;;
77524;SDS011;66638;50.050;21.124;2023-11-21T10:53:21;8.30;;;6.90;;
77524;SDS011;66638;50.050;21.124;2023-11-21T10:56:09;7.70;;;6.30;;
77524;SDS011;66638;50.050;21.124;2023-11-21T10:58:58;7.90;;;6.30;;
77524;SDS011;66638;50.050;21.124;2023-11-21T11:01:45;7.30;;;6.50;;
77524;SDS011;66638;50.050;21.124;2023-11-21T11:07:19;9.00;;;6.60;;
77524;SDS011;66638;50.050;21.124;2023-11-21T11:10:09;7.40;;;6.00;;
77524;SDS011;66638;50.050;21.124;2023-11-21T11:13:01;9.40;;;6.30;;
77524;SDS011;66638;50.050;21.124;2023-11-21T11:15:48;7.90;;;6.10;;
77524;SDS011;66638;50.050;21.124;2023-11-21T11:18:36;10.30;;;6.10;;
77524;SDS011;66638;50.050;21.124;2023-11-21T11:21:27;8.70;;;7.10;;
77524;SDS011;66638;50.050;21.124;2023-11-21T11:31:35;10.40;;;7.50;;
77524;SDS011;66638;50.050;21.124;2023-11-21T11:37:54;11.90;;;8.90;;
77524;SDS011;66638;50.050;21.124;2023-11-21T11:40:45;11.70;;;8.20;;
77524;SDS011;66638;50.050;21.124;2023-11-21T11:43:33;12.30;;;8.50;;
77524;SDS011;66638;50.050;21.124;2023-11-21T11:49:38;12.50;;;8.40;;
77524;SDS011;66638;50.050;21.124;2023-11-21T11:52:36;12.20;;;8.50;;
77524;SDS011;66638;50.050;21.124;2023-11-21T11:55:26;11.90;;;8.90;;
77524;SDS011;66638;50.050;21.124;2023-11-21T11:58:17;11.90;;;7.90;;
77524;SDS011;66638;50.050;21.124;2023-11-21T12:01:06;10.90;;;8.30;;
77524;SDS011;66638;50.050;21.124;2023-11-21T12:07:18;10.00;;;7.20;;
77524;SDS011;66638;50.050;21.124;2023-11-21T12:10:05;11.90;;;8.60;;
77524;SDS011;66638;50.050;21.124;2023-11-21T12:12:57;12.60;;;8.90;;
77524;SDS011;66638;50.050;21.124;2023-11-21T12:15:46;15.80;;;9.10;;
77524;SDS011;66638;50.050;21.124;2023-11-21T12:18:33;13.10;;;8.50;;
77524;SDS011;66638;50.050;21.124;2023-11-21T12:21:20;12.20;;;7.70;;
77524;SDS011;66638;50.050;21.124;2023-11-21T12:24:08;12.20;;;8.30;;
77524;SDS011;66638;50.050;21.124;2023-11-21T12:26:55;13.40;;;8.50;;
77524;SDS011;66638;50.050;21.124;2023-11-21T12:29:42;11.60;;;7.70;;
77524;SDS011;66638;50.050;21.124;2023-11-21T12:32:30;12.90;;;8.40;;
77524;SDS011;66638;50.050;21.124;2023-11-21T12:35:18;12.20;;;9.30;;
77524;SDS011;66638;50.050;21.124;2023-11-21T12:38:06;12.30;;;8.00;;
77524;SDS011;66638;50.050;21.124;2023-11-21T12:40:56;11.00;;;7.30;;
77524;SDS011;66638;50.050;21.124;2023-11-21T12:43:44;11.10;;;7.70;;
77524;SDS011;66638;50.050;21.124;2023-11-21T12:46:32;13.30;;;9.50;;
77524;SDS011;66638;50.050;21.124;2023-11-21T12:49:21;14.80;;;10.20;;
77524;SDS011;66638;50.050;21.124;2023-11-21T12:52:09;15.50;;;9.40;;
77524;SDS011;66638;50.050;21.124;2023-11-21T12:57:44;12.60;;;8.50;;
77524;SDS011;66638;50.050;21.124;2023-11-21T13:03:40;12.90;;;8.80;;
77524;SDS011;66638;50.050;21.124;2023-11-21T13:06:32;14.50;;;9.00;;
77524;SDS011;66638;50.050;21.124;2023-11-21T13:09:25;12.30;;;8.40;;
77524;SDS011;66638;50.050;21.124;2023-11-21T13:12:14;12.70;;;8.00;;
77524;SDS011;66638;50.050;21.124;2023-11-21T13:15:05;10.70;;;7.90;;
77524;SDS011;66638;50.050;21.124;2023-11-21T13:17:54;12.70;;;7.40;;
77524;SDS011;66638;50.050;21.124;2023-11-21T13:20:44;12.30;;;7.60;;
77524;SDS011;66638;50.050;21.124;2023-11-21T13:23:34;10.10;;;8.50;;
77524;SDS011;66638;50.050;21.124;2023-11-21T13:26:22;12.70;;;9.50;;
77524;SDS011;66638;50.050;21.124;2023-11-21T13:29:12;13.70;;;9.10;;
77524;SDS011;66638;50.050;21.124;2023-11-21T13:34:47;12.40;;;8.80;;
77524;SDS011;66638;50.050;21.124;2023-11-21T13:37:34;16.00;;;10.90;;
77524;SDS011;66638;50.050;21.124;2023-11-21T13:43:13;13.00;;;9.10;;
77524;SDS011;66638;50.050;21.124;2023-11-21T13:46:00;12.00;;;8.40;;
77524;SDS011;66638;50.050;21.124;2023-11-21T13:49:00;16.70;;;9.00;;
77524;SDS011;66638;50.050;21.124;2023-11-21T13:51:47;14.20;;;9.60;;
77524;SDS011;66638;50.050;21.124;2023-11-21T13:54:39;15.20;;;9.70;;
77524;SDS011;66638;50.050;21.124;2023-11-21T13:57:26;13.00;;;9.00;;
77524;SDS011;66638;50.050;21.124;2023-11-21T14:00:14;16.70;;;9.10;;
77524;SDS011;66638;50.050;21.124;2023-11-21T14:03:24;14.60;;;10.20;;
77524;SDS011;66638;50.050;21.124;2023-11-21T14:06:24;12.70;;;7.80;;
77524;SDS011;66638;50.050;21.124;2023-11-21T14:09:23;12.90;;;7.60;;
77524;SDS011;66638;50.050;21.124;2023-11-21T14:12:12;16.00;;;10.30;;
77524;SDS011;66638;50.050;21.124;2023-11-21T14:15:00;12.40;;;6.80;;
77524;SDS011;66638;50.050;21.124;2023-11-21T14:17:50;7.80;;;5.40;;
77524;SDS011;66638;50.050;21.124;2023-11-21T14:20:37;11.70;;;7.40;;
77524;SDS011;66638;50.050;21.124;2023-11-21T14:23:24;12.40;;;7.80;;
77524;SDS011;66638;50.050;21.124;2023-11-21T14:29:03;13.50;;;8.20;;
77524;SDS011;66638;50.050;21.124;2023-11-21T14:31:51;17.20;;;10.10;;
77524;SDS011;66638;50.050;21.124;2023-11-21T14:34:42;17.70;;;11.10;;
77524;SDS011;66638;50.050;21.124;2023-11-21T14:37:34;7.70;;;4.90;;
77524;SDS011;66638;50.050;21.124;2023-11-21T14:40:22;17.80;;;11.50;;
77524;SDS011;66638;50.050;21.124;2023-11-21T14:43:11;16.50;;;9.50;;
77524;SDS011;66638;50.050;21.124;2023-11-21T14:45:58;20.70;;;12.80;;
77524;SDS011;66638;50.050;21.124;2023-11-21T14:48:46;16.20;;;10.20;;
77524;SDS011;66638;50.050;21.124;2023-11-21T14:51:46;16.10;;;10.50;;
77524;SDS011;66638;50.050;21.124;2023-11-21T14:54:53;21.40;;;13.60;;
77524;SDS011;66638;50.050;21.124;2023-11-21T14:58:00;17.40;;;10.50;;
77524;SDS011;66638;50.050;21.124;2023-11-21T15:00:51;16.20;;;10.60;;
77524;SDS011;66638;50.050;21.124;2023-11-21T15:03:43;13.60;;;6.90;;
77524;SDS011;66638;50.050;21.124;2023-11-21T15:06:36;17.10;;;10.90;;
77524;SDS011;66638;50.050;21.124;2023-11-21T15:09:23;17.70;;;10.10;;
77524;SDS011;66638;50.050;21.124;2023-11-21T15:12:21;23.00;;;13.50;;
77524;SDS011;66638;50.050;21.124;2023-11-21T15:15:13;19.80;;;11.60;;
77524;SDS011;66638;50.050;21.124;2023-11-21T15:18:01;14.30;;;8.80;;
77524;SDS011;66638;50.050;21.124;2023-11-21T15:20:48;20.90;;;11.90;;
77524;SDS011;66638;50.050;21.124;2023-11-21T15:23:35;16.40;;;10.40;;
77524;SDS011;66638;50.050;21.124;2023-11-21T15:26:23;18.30;;;12.40;;
77524;SDS011;66638;50.050;21.124;2023-11-21T15:31:58;17.40;;;9.50;;
77524;SDS011;66638;50.050;21.124;2023-11-21T15:34:45;13.60;;;7.50;;
77524;SDS011;66638;50.050;21.124;2023-11-21T15:37:34;10.70;;;6.70;;
77524;SDS011;66638;50.050;21.124;2023-11-21T15:40:21;13.70;;;8.60;;
77524;SDS011;66638;50.050;21.124;2023-11-21T15:43:09;12.60;;;7.60;;
77524;SDS011;66638;50.050;21.124;2023-11-21T15:45:56;18.30;;;11.00;;
77524;SDS011;66638;50.050;21.124;2023-11-21T15:48:43;17.10;;;9.80;;
77524;SDS011;66638;50.050;21.124;2023-11-21T15:51:42;19.60;;;12.40;;
77524;SDS011;66638;50.050;21.124;2023-11-21T15:54:33;19.50;;;11.10;;
77524;SDS011;66638;50.050;21.124;2023-11-21T15:57:21;19.40;;;12.50;;
77524;SDS011;66638;50.050;21.124;2023-11-21T16:00:09;16.90;;;10.70;;
77524;SDS011;66638;50.050;21.124;2023-11-21T16:03:02;12.00;;;7.20;;
77524;SDS011;66638;50.050;21.124;2023-11-21T16:05:50;15.80;;;10.00;;
77524;SDS011;66638;50.050;21.124;2023-11-21T16:08:38;13.60;;;8.10;;
77524;SDS011;66638;50.050;21.124;2023-11-21T16:11:25;14.20;;;8.20;;
77524;SDS011;66638;50.050;21.124;2023-11-21T16:14:13;20.20;;;11.10;;
77524;SDS011;66638;50.050;21.124;2023-11-21T16:16:59;19.90;;;13.40;;
77524;SDS011;66638;50.050;21.124;2023-11-21T16:19:47;17.00;;;11.50;;
77524;SDS011;66638;50.050;21.124;2023-11-21T16:25:21;17.70;;;10.00;;
77524;SDS011;66638;50.050;21.124;2023-11-21T16:28:08;18.30;;;9.70;;
77524;SDS011;66638;50.050;21.124;2023-11-21T16:30:55;19.80;;;11.80;;
77524;SDS011;66638;50.050;21.124;2023-11-21T16:33:43;19.70;;;10.30;;
77524;SDS011;66638;50.050;21.124;2023-11-21T16:39:17;14.70;;;7.60;;
77524;SDS011;66638;50.050;21.124;2023-11-21T16:42:07;14.00;;;8.40;;
77524;SDS011;66638;50.050;21.124;2023-11-21T16:44:54;17.00;;;9.50;;
77524;SDS011;66638;50.050;21.124;2023-11-21T16:47:42;16.30;;;10.00;;
77524;SDS011;66638;50.050;21.124;2023-11-21T16:50:30;16.80;;;9.80;;
77524;SDS011;66638;50.050;21.124;2023-11-21T16:53:17;12.50;;;7.80;;
77524;SDS011;66638;50.050;21.124;2023-11-21T16:56:05;14.40;;;10.00;;
77524;SDS011;66638;50.050;21.124;2023-11-21T16:58:53;21.40;;;12.90;;
77524;SDS011;66638;50.050;21.124;2023-11-21T17:01:41;22.10;;;13.10;;
77524;SDS011;66638;50.050;21.124;2023-11-21T17:04:28;23.90;;;13.80;;
77524;SDS011;66638;50.050;21.124;2023-11-21T17:07:16;18.70;;;11.00;;
77524;SDS011;66638;50.050;21.124;2023-11-21T17:10:04;19.50;;;11.50;;
77524;SDS011;66638;50.050;21.124;2023-11-21T17:12:56;15.80;;;11.20;;
77524;SDS011;66638;50.050;21.124;2023-11-21T17:15:43;17.70;;;10.50;;
77524;SDS011;66638;50.050;21.124;2023-11-21T17:18:33;17.50;;;10.40;;
77524;SDS011;66638;50.050;21.124;2023-11-21T17:21:20;16.60;;;9.70;;
77524;SDS011;66638;50.050;21.124;2023-11-21T17:24:07;15.90;;;9.80;;
77524;SDS011;66638;50.050;21.124;2023-11-21T17:26:56;15.00;;;8.30;;
77524;SDS011;66638;50.050;21.124;2023-11-21T17:29:43;16.10;;;9.60;;
77524;SDS011;66638;50.050;21.124;2023-11-21T17:32:31;16.40;;;10.60;;
77524;SDS011;66638;50.050;21.124;2023-11-21T17:35:18;20.30;;;11.20;;
77524;SDS011;66638;50.050;21.124;2023-11-21T17:38:08;19.70;;;11.00;;
77524;SDS011;66638;50.050;21.124;2023-11-21T17:40:56;18.90;;;11.60;;
77524;SDS011;66638;50.050;21.124;2023-11-21T17:43:43;11.10;;;5.90;;
77524;SDS011;66638;50.050;21.124;2023-11-21T17:46:31;12.30;;;7.00;;
77524;SDS011;66638;50.050;21.124;2023-11-21T17:49:18;19.50;;;10.10;;
77524;SDS011;66638;50.050;21.124;2023-11-21T17:52:06;20.50;;;11.80;;
77524;SDS011;66638;50.050;21.124;2023-11-21T17:54:53;23.20;;;12.10;;